sensor_id;sensor_type;location;lat;lon;timestamp;P1;durP1;ratioP1;P2;durP2;ratioP2
22131;SDS011;11232;51.748;19.390;2023-04-24T00:01:04;19.35;;;11.57;;
22131;SDS011;11232;51.748;19.390;2023-04-24T00:03:32;18.98;;;11.40;;
22131;SDS011;11232;51.748;19.390;2023-04-24T00:05:58;16.52;;;10.40;;
22131;SDS011;11232;51.748;19.390;2023-04-24T00:08:25;17.40;;;9.70;;
22131;SDS011;11232;51.748;19.390;2023-04-24T00:10:51;16.83;;;10.48;;
22131;SDS011;11232;51.748;19.390;2023-04-24T00:13:18;15.25;;;9.68;;
22131;SDS011;11232;51.748;19.390;2023-04-24T00:15:43;17.73;;;10.88;;
22131;SDS011;11232;51.748;19.390;2023-04-24T00:18:09;18.08;;;10.50;;
22131;SDS011;11232;51.748;19.390;2023-04-24T00:20:35;19.45;;;10.38;;
22131;SDS011;11232;51.748;19.390;2023-04-24T00:23:02;16.40;;;10.27;;
22131;SDS011;11232;51.748;19.390;2023-04-24T00:25:28;18.90;;;10.45;;
22131;SDS011;11232;51.748;19.390;2023-04-24T00:27:54;24.38;;;11.80;;
22131;SDS011;11232;51.748;19.390;2023-04-24T00:30:20;17.92;;;11.15;;
22131;SDS011;11232;51.748;19.390;2023-04-24T00:32:46;19.08;;;11.73;;
22131;SDS011;11232;51.748;19.390;2023-04-24T00:35:12;20.23;;;10.90;;
22131;SDS011;11232;51.748;19.390;2023-04-24T00:37:39;15.40;;;11.02;;
22131;SDS011;11232;51.748;19.390;2023-04-24T00:40:05;18.88;;;10.52;;
22131;SDS011;11232;51.748;19.390;2023-04-24T00:42:31;16.52;;;10.05;;
22131;SDS011;11232;51.748;19.390;2023-04-24T00:44:58;17.38;;;10.10;;
22131;SDS011;11232;51.748;19.390;2023-04-24T00:47:24;15.77;;;9.75;;
22131;SDS011;11232;51.748;19.390;2023-04-24T00:49:51;13.88;;;9.40;;
22131;SDS011;11232;51.748;19.390;2023-04-24T00:52:17;16.42;;;10.15;;
22131;SDS011;11232;51.748;19.390;2023-04-24T00:54:46;20.75;;;10.10;;
22131;SDS011;11232;51.748;19.390;2023-04-24T00:57:12;18.70;;;9.52;;
22131;SDS011;11232;51.748;19.390;2023-04-24T00:59:38;14.35;;;9.30;;
22131;SDS011;11232;51.748;19.390;2023-04-24T01:02:06;19.60;;;9.75;;
22131;SDS011;11232;51.748;19.390;2023-04-24T01:04:32;17.60;;;10.90;;
22131;SDS011;11232;51.748;19.390;2023-04-24T01:06:58;20.92;;;10.73;;
22131;SDS011;11232;51.748;19.390;2023-04-24T01:09:24;20.25;;;10.43;;
22131;SDS011;11232;51.748;19.390;2023-04-24T01:11:50;20.10;;;10.98;;
22131;SDS011;11232;51.748;19.390;2023-04-24T01:14:17;21.30;;;11.73;;
22131;SDS011;11232;51.748;19.390;2023-04-24T01:16:43;18.17;;;10.27;;
22131;SDS011;11232;51.748;19.390;2023-04-24T01:19:09;26.33;;;10.68;;
22131;SDS011;11232;51.748;19.390;2023-04-24T01:21:37;15.68;;;8.95;;
22131;SDS011;11232;51.748;19.390;2023-04-24T01:24:03;18.70;;;8.32;;
22131;SDS011;11232;51.748;19.390;2023-04-24T01:26:29;13.95;;;8.88;;
22131;SDS011;11232;51.748;19.390;2023-04-24T01:28:56;18.92;;;9.48;;
22131;SDS011;11232;51.748;19.390;2023-04-24T01:31:21;16.80;;;9.15;;
22131;SDS011;11232;51.748;19.390;2023-04-24T01:33:48;14.15;;;8.98;;
22131;SDS011;11232;51.748;19.390;2023-04-24T01:36:15;16.55;;;8.63;;
22131;SDS011;11232;51.748;19.390;2023-04-24T01:38:42;14.63;;;8.95;;
22131;SDS011;11232;51.748;19.390;2023-04-24T01:41:07;13.18;;;8.80;;
22131;SDS011;11232;51.748;19.390;2023-04-24T01:43:33;14.57;;;8.63;;
22131;SDS011;11232;51.748;19.390;2023-04-24T01:46:00;16.40;;;8.93;;
22131;SDS011;11232;51.748;19.390;2023-04-24T01:48:26;15.82;;;9.40;;
22131;SDS011;11232;51.748;19.390;2023-04-24T01:50:52;11.63;;;8.55;;
22131;SDS011;11232;51.748;19.390;2023-04-24T01:53:18;15.73;;;9.02;;
22131;SDS011;11232;51.748;19.390;2023-04-24T01:55:44;12.88;;;8.43;;
22131;SDS011;11232;51.748;19.390;2023-04-24T01:58:10;12.65;;;8.25;;
22131;SDS011;11232;51.748;19.390;2023-04-24T02:00:36;15.18;;;8.27;;
22131;SDS011;11232;51.748;19.390;2023-04-24T02:03:02;17.40;;;8.40;;
22131;SDS011;11232;51.748;19.390;2023-04-24T02:05:28;15.40;;;8.07;;
22131;SDS011;11232;51.748;19.390;2023-04-24T02:07:54;13.38;;;8.15;;
22131;SDS011;11232;51.748;19.390;2023-04-24T02:10:20;15.10;;;8.52;;
22131;SDS011;11232;51.748;19.390;2023-04-24T02:12:46;12.98;;;8.50;;
22131;SDS011;11232;51.748;19.390;2023-04-24T02:15:12;13.98;;;8.32;;
22131;SDS011;11232;51.748;19.390;2023-04-24T02:17:38;13.70;;;9.25;;
22131;SDS011;11232;51.748;19.390;2023-04-24T02:20:05;13.57;;;8.52;;
22131;SDS011;11232;51.748;19.390;2023-04-24T02:22:31;13.30;;;8.25;;
22131;SDS011;11232;51.748;19.390;2023-04-24T02:24:57;13.48;;;8.18;;
22131;SDS011;11232;51.748;19.390;2023-04-24T02:27:23;12.20;;;8.50;;
22131;SDS011;11232;51.748;19.390;2023-04-24T02:29:49;12.93;;;9.25;;
22131;SDS011;11232;51.748;19.390;2023-04-24T02:32:15;15.80;;;8.20;;
22131;SDS011;11232;51.748;19.390;2023-04-24T02:34:41;16.38;;;8.23;;
22131;SDS011;11232;51.748;19.390;2023-04-24T02:37:07;15.10;;;9.30;;
22131;SDS011;11232;51.748;19.390;2023-04-24T02:39:33;15.45;;;9.32;;
22131;SDS011;11232;51.748;19.390;2023-04-24T02:41:59;17.67;;;8.82;;
22131;SDS011;11232;51.748;19.390;2023-04-24T02:44:26;14.18;;;8.75;;
22131;SDS011;11232;51.748;19.390;2023-04-24T02:46:52;16.63;;;9.35;;
22131;SDS011;11232;51.748;19.390;2023-04-24T02:49:18;17.17;;;8.93;;
22131;SDS011;11232;51.748;19.390;2023-04-24T02:51:44;15.77;;;9.65;;
22131;SDS011;11232;51.748;19.390;2023-04-24T02:54:10;14.38;;;9.20;;
22131;SDS011;11232;51.748;19.390;2023-04-24T02:56:36;15.60;;;9.55;;
22131;SDS011;11232;51.748;19.390;2023-04-24T02:59:02;18.98;;;10.15;;
22131;SDS011;11232;51.748;19.390;2023-04-24T03:01:28;18.88;;;10.70;;
22131;SDS011;11232;51.748;19.390;2023-04-24T03:03:54;16.67;;;9.98;;
22131;SDS011;11232;51.748;19.390;2023-04-24T03:06:20;18.20;;;10.73;;
22131;SDS011;11232;51.748;19.390;2023-04-24T03:08:46;21.23;;;11.52;;
22131;SDS011;11232;51.748;19.390;2023-04-24T03:11:12;17.45;;;10.77;;
22131;SDS011;11232;51.748;19.390;2023-04-24T03:13:38;15.25;;;9.75;;
22131;SDS011;11232;51.748;19.390;2023-04-24T03:16:04;17.23;;;10.85;;
22131;SDS011;11232;51.748;19.390;2023-04-24T03:18:30;17.58;;;10.82;;
22131;SDS011;11232;51.748;19.390;2023-04-24T03:20:56;17.30;;;10.50;;
22131;SDS011;11232;51.748;19.390;2023-04-24T03:23:22;16.50;;;10.40;;
22131;SDS011;11232;51.748;19.390;2023-04-24T03:25:48;17.50;;;11.52;;
22131;SDS011;11232;51.748;19.390;2023-04-24T03:28:14;21.35;;;10.88;;
22131;SDS011;11232;51.748;19.390;2023-04-24T03:30:40;17.90;;;10.43;;
22131;SDS011;11232;51.748;19.390;2023-04-24T03:33:06;19.48;;;11.52;;
22131;SDS011;11232;51.748;19.390;2023-04-24T03:35:32;15.82;;;10.50;;
22131;SDS011;11232;51.748;19.390;2023-04-24T03:37:58;14.35;;;10.43;;
22131;SDS011;11232;51.748;19.390;2023-04-24T03:40:24;16.15;;;9.70;;
22131;SDS011;11232;51.748;19.390;2023-04-24T03:42:50;14.30;;;10.10;;
22131;SDS011;11232;51.748;19.390;2023-04-24T03:45:16;18.25;;;10.60;;
22131;SDS011;11232;51.748;19.390;2023-04-24T03:47:43;31.25;;;11.05;;
22131;SDS011;11232;51.748;19.390;2023-04-24T03:50:09;16.90;;;10.02;;
22131;SDS011;11232;51.748;19.390;2023-04-24T03:52:35;17.05;;;10.10;;
22131;SDS011;11232;51.748;19.390;2023-04-24T03:55:01;15.63;;;9.93;;
22131;SDS011;11232;51.748;19.390;2023-04-24T03:57:27;15.75;;;9.68;;
22131;SDS011;11232;51.748;19.390;2023-04-24T03:59:53;18.80;;;10.80;;
22131;SDS011;11232;51.748;19.390;2023-04-24T04:02:20;18.33;;;11.75;;
22131;SDS011;11232;51.748;19.390;2023-04-24T04:04:46;17.08;;;10.88;;
22131;SDS011;11232;51.748;19.390;2023-04-24T04:07:12;18.80;;;11.80;;
22131;SDS011;11232;51.748;19.390;2023-04-24T04:09:38;19.08;;;11.15;;
22131;SDS011;11232;51.748;19.390;2023-04-24T04:12:04;17.27;;;11.02;;
22131;SDS011;11232;51.748;19.390;2023-04-24T04:14:30;18.65;;;12.20;;
22131;SDS011;11232;51.748;19.390;2023-04-24T04:16:55;21.90;;;11.75;;
22131;SDS011;11232;51.748;19.390;2023-04-24T04:19:22;22.40;;;11.63;;
22131;SDS011;11232;51.748;19.390;2023-04-24T04:21:48;17.38;;;10.93;;
22131;SDS011;11232;51.748;19.390;2023-04-24T04:24:18;18.55;;;11.07;;
22131;SDS011;11232;51.748;19.390;2023-04-24T04:26:45;18.73;;;11.80;;
22131;SDS011;11232;51.748;19.390;2023-04-24T04:29:12;19.30;;;11.05;;
22131;SDS011;11232;51.748;19.390;2023-04-24T04:31:38;19.10;;;11.38;;
22131;SDS011;11232;51.748;19.390;2023-04-24T04:34:04;18.35;;;12.00;;
22131;SDS011;11232;51.748;19.390;2023-04-24T04:36:30;17.80;;;10.55;;
22131;SDS011;11232;51.748;19.390;2023-04-24T04:38:57;16.60;;;11.27;;
22131;SDS011;11232;51.748;19.390;2023-04-24T04:41:24;18.50;;;11.00;;
22131;SDS011;11232;51.748;19.390;2023-04-24T04:43:51;22.73;;;11.20;;
22131;SDS011;11232;51.748;19.390;2023-04-24T04:46:17;17.90;;;10.93;;
22131;SDS011;11232;51.748;19.390;2023-04-24T04:48:43;18.58;;;10.13;;
22131;SDS011;11232;51.748;19.390;2023-04-24T04:51:10;17.45;;;10.10;;
22131;SDS011;11232;51.748;19.390;2023-04-24T04:53:36;16.13;;;10.13;;
22131;SDS011;11232;51.748;19.390;2023-04-24T04:56:02;19.77;;;10.38;;
22131;SDS011;11232;51.748;19.390;2023-04-24T04:58:28;21.80;;;10.90;;
22131;SDS011;11232;51.748;19.390;2023-04-24T05:00:55;18.55;;;10.07;;
22131;SDS011;11232;51.748;19.390;2023-04-24T05:03:22;19.17;;;10.35;;
22131;SDS011;11232;51.748;19.390;2023-04-24T05:05:48;19.70;;;10.20;;
22131;SDS011;11232;51.748;19.390;2023-04-24T05:08:14;17.88;;;9.73;;
22131;SDS011;11232;51.748;19.390;2023-04-24T05:10:40;19.77;;;10.40;;
22131;SDS011;11232;51.748;19.390;2023-04-24T05:13:06;17.58;;;9.82;;
22131;SDS011;11232;51.748;19.390;2023-04-24T05:15:32;16.25;;;9.82;;
22131;SDS011;11232;51.748;19.390;2023-04-24T05:17:58;13.70;;;9.70;;
22131;SDS011;11232;51.748;19.390;2023-04-24T05:20:24;16.10;;;9.30;;
22131;SDS011;11232;51.748;19.390;2023-04-24T05:22:50;16.67;;;9.45;;
22131;SDS011;11232;51.748;19.390;2023-04-24T05:25:16;15.27;;;8.85;;
22131;SDS011;11232;51.748;19.390;2023-04-24T05:27:42;16.35;;;9.32;;
22131;SDS011;11232;51.748;19.390;2023-04-24T05:30:08;17.20;;;8.82;;
22131;SDS011;11232;51.748;19.390;2023-04-24T05:32:34;14.43;;;8.88;;
22131;SDS011;11232;51.748;19.390;2023-04-24T05:35:00;16.33;;;8.82;;
22131;SDS011;11232;51.748;19.390;2023-04-24T05:37:26;15.30;;;8.75;;
22131;SDS011;11232;51.748;19.390;2023-04-24T05:39:52;11.88;;;8.75;;
22131;SDS011;11232;51.748;19.390;2023-04-24T05:42:18;10.32;;;7.25;;
22131;SDS011;11232;51.748;19.390;2023-04-24T05:44:44;15.40;;;7.82;;
22131;SDS011;11232;51.748;19.390;2023-04-24T05:47:10;12.30;;;7.85;;
22131;SDS011;11232;51.748;19.390;2023-04-24T05:49:36;14.45;;;7.95;;
22131;SDS011;11232;51.748;19.390;2023-04-24T05:52:02;12.38;;;7.47;;
22131;SDS011;11232;51.748;19.390;2023-04-24T05:54:30;16.00;;;7.45;;
22131;SDS011;11232;51.748;19.390;2023-04-24T05:56:56;19.70;;;7.68;;
22131;SDS011;11232;51.748;19.390;2023-04-24T05:59:22;12.93;;;7.15;;
22131;SDS011;11232;51.748;19.390;2023-04-24T06:01:48;12.93;;;6.47;;
22131;SDS011;11232;51.748;19.390;2023-04-24T06:04:14;9.07;;;6.25;;
22131;SDS011;11232;51.748;19.390;2023-04-24T06:06:40;8.68;;;6.00;;
22131;SDS011;11232;51.748;19.390;2023-04-24T06:09:06;10.45;;;6.15;;
22131;SDS011;11232;51.748;19.390;2023-04-24T06:11:32;11.45;;;6.63;;
22131;SDS011;11232;51.748;19.390;2023-04-24T06:13:58;9.25;;;5.82;;
22131;SDS011;11232;51.748;19.390;2023-04-24T06:16:24;10.07;;;5.60;;
22131;SDS011;11232;51.748;19.390;2023-04-24T06:18:50;12.93;;;6.15;;
22131;SDS011;11232;51.748;19.390;2023-04-24T06:21:16;10.07;;;5.47;;
22131;SDS011;11232;51.748;19.390;2023-04-24T06:23:42;8.05;;;5.80;;
22131;SDS011;11232;51.748;19.390;2023-04-24T06:26:09;10.88;;;5.75;;
22131;SDS011;11232;51.748;19.390;2023-04-24T06:28:35;14.20;;;5.85;;
22131;SDS011;11232;51.748;19.390;2023-04-24T06:31:01;9.27;;;5.65;;
22131;SDS011;11232;51.748;19.390;2023-04-24T06:33:27;9.95;;;5.80;;
22131;SDS011;11232;51.748;19.390;2023-04-24T06:35:53;10.10;;;5.30;;
22131;SDS011;11232;51.748;19.390;2023-04-24T06:38:19;7.07;;;5.10;;
22131;SDS011;11232;51.748;19.390;2023-04-24T06:40:45;8.70;;;5.43;;
22131;SDS011;11232;51.748;19.390;2023-04-24T06:43:11;11.63;;;5.38;;
22131;SDS011;11232;51.748;19.390;2023-04-24T06:45:37;10.20;;;5.68;;
22131;SDS011;11232;51.748;19.390;2023-04-24T06:48:04;10.20;;;4.55;;
22131;SDS011;11232;51.748;19.390;2023-04-24T06:50:30;8.38;;;4.90;;
22131;SDS011;11232;51.748;19.390;2023-04-24T06:52:56;9.05;;;5.13;;
22131;SDS011;11232;51.748;19.390;2023-04-24T06:55:22;9.18;;;4.90;;
22131;SDS011;11232;51.748;19.390;2023-04-24T06:57:48;8.68;;;5.03;;
22131;SDS011;11232;51.748;19.390;2023-04-24T07:00:14;9.88;;;4.70;;
22131;SDS011;11232;51.748;19.390;2023-04-24T07:02:40;8.35;;;4.57;;
22131;SDS011;11232;51.748;19.390;2023-04-24T07:05:06;8.10;;;4.68;;
22131;SDS011;11232;51.748;19.390;2023-04-24T07:07:33;7.78;;;4.78;;
22131;SDS011;11232;51.748;19.390;2023-04-24T07:09:59;7.20;;;4.65;;
22131;SDS011;11232;51.748;19.390;2023-04-24T07:12:25;7.32;;;5.10;;
22131;SDS011;11232;51.748;19.390;2023-04-24T07:14:51;6.90;;;4.65;;
22131;SDS011;11232;51.748;19.390;2023-04-24T07:17:17;8.85;;;4.75;;
22131;SDS011;11232;51.748;19.390;2023-04-24T07:19:43;7.88;;;5.07;;
22131;SDS011;11232;51.748;19.390;2023-04-24T07:22:09;8.70;;;6.30;;
22131;SDS011;11232;51.748;19.390;2023-04-24T07:24:41;8.10;;;5.05;;
22131;SDS011;11232;51.748;19.390;2023-04-24T07:27:08;8.68;;;4.97;;
22131;SDS011;11232;51.748;19.390;2023-04-24T07:29:34;9.60;;;4.90;;
22131;SDS011;11232;51.748;19.390;2023-04-24T07:32:00;7.72;;;4.93;;
22131;SDS011;11232;51.748;19.390;2023-04-24T07:34:26;6.15;;;5.20;;
22131;SDS011;11232;51.748;19.390;2023-04-24T07:36:52;5.38;;;4.35;;
22131;SDS011;11232;51.748;19.390;2023-04-24T07:39:18;7.68;;;4.57;;
22131;SDS011;11232;51.748;19.390;2023-04-24T07:41:44;9.27;;;4.80;;
22131;SDS011;11232;51.748;19.390;2023-04-24T07:44:10;7.63;;;4.47;;
22131;SDS011;11232;51.748;19.390;2023-04-24T07:46:36;5.35;;;4.15;;
22131;SDS011;11232;51.748;19.390;2023-04-24T07:49:02;6.20;;;4.47;;
22131;SDS011;11232;51.748;19.390;2023-04-24T07:51:30;6.03;;;4.43;;
22131;SDS011;11232;51.748;19.390;2023-04-24T07:53:58;6.50;;;4.50;;
22131;SDS011;11232;51.748;19.390;2023-04-24T07:56:24;6.18;;;4.20;;
22131;SDS011;11232;51.748;19.390;2023-04-24T07:58:50;7.78;;;4.45;;
22131;SDS011;11232;51.748;19.390;2023-04-24T08:01:16;7.93;;;4.22;;
22131;SDS011;11232;51.748;19.390;2023-04-24T08:03:42;8.27;;;4.03;;
22131;SDS011;11232;51.748;19.390;2023-04-24T08:06:08;4.85;;;4.35;;
22131;SDS011;11232;51.748;19.390;2023-04-24T08:08:34;7.72;;;4.55;;
22131;SDS011;11232;51.748;19.390;2023-04-24T08:11:00;8.23;;;4.53;;
22131;SDS011;11232;51.748;19.390;2023-04-24T08:13:26;6.07;;;4.18;;
22131;SDS011;11232;51.748;19.390;2023-04-24T08:15:52;5.53;;;3.80;;
22131;SDS011;11232;51.748;19.390;2023-04-24T08:18:18;6.63;;;4.25;;
22131;SDS011;11232;51.748;19.390;2023-04-24T08:20:44;9.15;;;4.78;;
22131;SDS011;11232;51.748;19.390;2023-04-24T08:23:10;6.22;;;4.05;;
22131;SDS011;11232;51.748;19.390;2023-04-24T08:25:36;5.10;;;4.28;;
22131;SDS011;11232;51.748;19.390;2023-04-24T08:28:02;4.60;;;4.15;;
22131;SDS011;11232;51.748;19.390;2023-04-24T08:30:29;6.70;;;4.32;;
22131;SDS011;11232;51.748;19.390;2023-04-24T08:32:55;5.03;;;3.97;;
22131;SDS011;11232;51.748;19.390;2023-04-24T08:35:21;8.88;;;4.15;;
22131;SDS011;11232;51.748;19.390;2023-04-24T08:37:47;5.53;;;4.07;;
22131;SDS011;11232;51.748;19.390;2023-04-24T08:40:15;7.40;;;4.13;;
22131;SDS011;11232;51.748;19.390;2023-04-24T08:42:42;10.45;;;4.25;;
22131;SDS011;11232;51.748;19.390;2023-04-24T08:45:09;8.60;;;4.35;;
22131;SDS011;11232;51.748;19.390;2023-04-24T08:47:35;5.93;;;4.35;;
22131;SDS011;11232;51.748;19.390;2023-04-24T08:50:02;4.88;;;4.35;;
22131;SDS011;11232;51.748;19.390;2023-04-24T08:52:30;5.20;;;3.83;;
22131;SDS011;11232;51.748;19.390;2023-04-24T08:54:57;7.38;;;4.53;;
22131;SDS011;11232;51.748;19.390;2023-04-24T08:57:24;5.20;;;3.80;;
22131;SDS011;11232;51.748;19.390;2023-04-24T08:59:50;7.88;;;4.57;;
22131;SDS011;11232;51.748;19.390;2023-04-24T09:02:17;9.45;;;4.50;;
22131;SDS011;11232;51.748;19.390;2023-04-24T09:04:43;5.25;;;4.20;;
22131;SDS011;11232;51.748;19.390;2023-04-24T09:07:10;5.20;;;4.40;;
22131;SDS011;11232;51.748;19.390;2023-04-24T09:09:37;7.15;;;4.68;;
22131;SDS011;11232;51.748;19.390;2023-04-24T09:12:04;4.93;;;3.58;;
22131;SDS011;11232;51.748;19.390;2023-04-24T09:14:31;7.10;;;4.13;;
22131;SDS011;11232;51.748;19.390;2023-04-24T09:16:57;9.55;;;4.90;;
22131;SDS011;11232;51.748;19.390;2023-04-24T09:19:23;7.57;;;4.32;;
22131;SDS011;11232;51.748;19.390;2023-04-24T09:21:49;6.47;;;4.88;;
22131;SDS011;11232;51.748;19.390;2023-04-24T09:24:16;6.32;;;4.53;;
22131;SDS011;11232;51.748;19.390;2023-04-24T09:26:47;6.50;;;4.43;;
22131;SDS011;11232;51.748;19.390;2023-04-24T09:29:16;6.18;;;4.50;;
22131;SDS011;11232;51.748;19.390;2023-04-24T09:31:43;6.43;;;3.88;;
22131;SDS011;11232;51.748;19.390;2023-04-24T09:34:09;7.20;;;3.88;;
22131;SDS011;11232;51.748;19.390;2023-04-24T09:36:39;4.53;;;3.97;;
22131;SDS011;11232;51.748;19.390;2023-04-24T09:39:06;8.15;;;4.15;;
22131;SDS011;11232;51.748;19.390;2023-04-24T09:41:44;5.57;;;4.22;;
22131;SDS011;11232;51.748;19.390;2023-04-24T09:44:20;5.57;;;4.13;;
22131;SDS011;11232;51.748;19.390;2023-04-24T09:46:50;6.97;;;4.25;;
22131;SDS011;11232;51.748;19.390;2023-04-24T09:49:16;7.10;;;4.93;;
22131;SDS011;11232;51.748;19.390;2023-04-24T09:51:45;6.18;;;4.18;;
22131;SDS011;11232;51.748;19.390;2023-04-24T09:54:15;11.05;;;5.00;;
22131;SDS011;11232;51.748;19.390;2023-04-24T09:56:42;6.10;;;4.22;;
22131;SDS011;11232;51.748;19.390;2023-04-24T09:59:10;7.18;;;4.78;;
22131;SDS011;11232;51.748;19.390;2023-04-24T10:01:36;5.40;;;4.30;;
22131;SDS011;11232;51.748;19.390;2023-04-24T10:04:03;7.40;;;4.63;;
22131;SDS011;11232;51.748;19.390;2023-04-24T10:06:30;7.47;;;4.32;;
22131;SDS011;11232;51.748;19.390;2023-04-24T10:08:57;7.68;;;4.35;;
22131;SDS011;11232;51.748;19.390;2023-04-24T10:11:23;11.73;;;4.38;;
22131;SDS011;11232;51.748;19.390;2023-04-24T10:13:50;4.88;;;4.13;;
22131;SDS011;11232;51.748;19.390;2023-04-24T10:16:17;7.40;;;5.35;;
22131;SDS011;11232;51.748;19.390;2023-04-24T10:18:43;6.97;;;4.13;;
22131;SDS011;11232;51.748;19.390;2023-04-24T10:21:09;6.63;;;3.67;;
22131;SDS011;11232;51.748;19.390;2023-04-24T10:23:35;7.53;;;4.60;;
22131;SDS011;11232;51.748;19.390;2023-04-24T10:26:02;8.07;;;4.60;;
22131;SDS011;11232;51.748;19.390;2023-04-24T10:28:29;4.93;;;4.38;;
22131;SDS011;11232;51.748;19.390;2023-04-24T10:30:56;6.68;;;4.07;;
22131;SDS011;11232;51.748;19.390;2023-04-24T10:33:22;5.85;;;4.97;;
22131;SDS011;11232;51.748;19.390;2023-04-24T10:35:49;4.70;;;4.03;;
22131;SDS011;11232;51.748;19.390;2023-04-24T10:38:18;5.97;;;4.65;;
22131;SDS011;11232;51.748;19.390;2023-04-24T10:40:44;7.00;;;4.20;;
22131;SDS011;11232;51.748;19.390;2023-04-24T10:43:10;6.88;;;4.13;;
22131;SDS011;11232;51.748;19.390;2023-04-24T10:45:36;5.57;;;3.80;;
22131;SDS011;11232;51.748;19.390;2023-04-24T10:48:04;5.97;;;4.13;;
22131;SDS011;11232;51.748;19.390;2023-04-24T10:50:45;6.68;;;4.28;;
22131;SDS011;11232;51.748;19.390;2023-04-24T10:53:12;5.85;;;3.88;;
22131;SDS011;11232;51.748;19.390;2023-04-24T10:55:46;5.45;;;4.40;;
22131;SDS011;11232;51.748;19.390;2023-04-24T10:58:12;6.07;;;4.22;;
22131;SDS011;11232;51.748;19.390;2023-04-24T11:00:40;7.43;;;4.30;;
22131;SDS011;11232;51.748;19.390;2023-04-24T11:03:28;10.02;;;4.25;;
22131;SDS011;11232;51.748;19.390;2023-04-24T11:05:57;5.05;;;4.03;;
22131;SDS011;11232;51.748;19.390;2023-04-24T11:08:27;7.50;;;4.30;;
22131;SDS011;11232;51.748;19.390;2023-04-24T11:13:23;6.15;;;4.60;;
22131;SDS011;11232;51.748;19.390;2023-04-24T11:16:11;6.63;;;3.92;;
22131;SDS011;11232;51.748;19.390;2023-04-24T11:18:38;6.93;;;3.88;;
22131;SDS011;11232;51.748;19.390;2023-04-24T11:21:15;8.52;;;4.28;;
22131;SDS011;11232;51.748;19.390;2023-04-24T11:23:42;5.40;;;3.80;;
22131;SDS011;11232;51.748;19.390;2023-04-24T11:26:26;4.75;;;3.58;;
22131;SDS011;11232;51.748;19.390;2023-04-24T11:28:55;4.68;;;4.18;;
22131;SDS011;11232;51.748;19.390;2023-04-24T11:31:38;4.90;;;4.20;;
22131;SDS011;11232;51.748;19.390;2023-04-24T11:36:34;8.25;;;4.43;;
22131;SDS011;11232;51.748;19.390;2023-04-24T11:39:00;7.13;;;4.22;;
22131;SDS011;11232;51.748;19.390;2023-04-24T11:41:26;8.00;;;4.20;;
22131;SDS011;11232;51.748;19.390;2023-04-24T11:43:52;4.78;;;3.95;;
22131;SDS011;11232;51.748;19.390;2023-04-24T11:46:20;4.93;;;3.85;;
22131;SDS011;11232;51.748;19.390;2023-04-24T11:48:46;11.63;;;4.03;;
22131;SDS011;11232;51.748;19.390;2023-04-24T11:51:13;7.13;;;4.25;;
22131;SDS011;11232;51.748;19.390;2023-04-24T11:53:39;5.68;;;3.95;;
22131;SDS011;11232;51.748;19.390;2023-04-24T11:56:05;5.50;;;4.18;;
22131;SDS011;11232;51.748;19.390;2023-04-24T11:58:37;5.32;;;4.53;;
22131;SDS011;11232;51.748;19.390;2023-04-24T12:01:04;5.97;;;4.20;;
22131;SDS011;11232;51.748;19.390;2023-04-24T12:03:30;5.82;;;4.18;;
22131;SDS011;11232;51.748;19.390;2023-04-24T12:08:32;12.98;;;4.18;;
22131;SDS011;11232;51.748;19.390;2023-04-24T12:11:02;5.07;;;4.05;;
22131;SDS011;11232;51.748;19.390;2023-04-24T12:13:28;4.97;;;4.00;;
22131;SDS011;11232;51.748;19.390;2023-04-24T12:15:56;8.30;;;4.30;;
22131;SDS011;11232;51.748;19.390;2023-04-24T12:18:22;6.22;;;4.78;;
22131;SDS011;11232;51.748;19.390;2023-04-24T12:20:48;5.03;;;3.78;;
22131;SDS011;11232;51.748;19.390;2023-04-24T12:23:15;8.93;;;4.20;;
22131;SDS011;11232;51.748;19.390;2023-04-24T12:25:41;4.63;;;3.88;;
22131;SDS011;11232;51.748;19.390;2023-04-24T12:28:11;5.38;;;4.05;;
22131;SDS011;11232;51.748;19.390;2023-04-24T12:30:44;8.10;;;3.92;;
22131;SDS011;11232;51.748;19.390;2023-04-24T12:33:10;5.30;;;4.10;;
22131;SDS011;11232;51.748;19.390;2023-04-24T12:35:36;4.93;;;3.97;;
22131;SDS011;11232;51.748;19.390;2023-04-24T12:38:09;6.22;;;4.47;;
22131;SDS011;11232;51.748;19.390;2023-04-24T12:40:36;11.27;;;4.22;;
22131;SDS011;11232;51.748;19.390;2023-04-24T12:43:02;6.57;;;4.15;;
22131;SDS011;11232;51.748;19.390;2023-04-24T12:45:38;5.68;;;4.40;;
22131;SDS011;11232;51.748;19.390;2023-04-24T12:48:04;9.13;;;4.25;;
22131;SDS011;11232;51.748;19.390;2023-04-24T12:50:30;4.80;;;4.00;;
22131;SDS011;11232;51.748;19.390;2023-04-24T12:52:56;6.22;;;4.20;;
22131;SDS011;11232;51.748;19.390;2023-04-24T12:55:22;5.18;;;4.03;;
22131;SDS011;11232;51.748;19.390;2023-04-24T12:57:48;5.93;;;4.05;;
22131;SDS011;11232;51.748;19.390;2023-04-24T13:00:14;5.32;;;3.95;;
22131;SDS011;11232;51.748;19.390;2023-04-24T13:02:40;6.53;;;3.90;;
22131;SDS011;11232;51.748;19.390;2023-04-24T13:05:06;5.78;;;4.30;;
22131;SDS011;11232;51.748;19.390;2023-04-24T13:07:32;6.03;;;3.90;;
22131;SDS011;11232;51.748;19.390;2023-04-24T13:09:58;7.45;;;4.13;;
22131;SDS011;11232;51.748;19.390;2023-04-24T13:12:24;6.13;;;4.40;;
22131;SDS011;11232;51.748;19.390;2023-04-24T13:14:51;7.10;;;4.03;;
22131;SDS011;11232;51.748;19.390;2023-04-24T13:17:17;9.07;;;4.45;;
22131;SDS011;11232;51.748;19.390;2023-04-24T13:19:43;4.63;;;3.72;;
22131;SDS011;11232;51.748;19.390;2023-04-24T13:22:10;5.13;;;3.83;;
22131;SDS011;11232;51.748;19.390;2023-04-24T13:24:37;6.03;;;4.05;;
22131;SDS011;11232;51.748;19.390;2023-04-24T13:27:04;4.80;;;3.67;;
22131;SDS011;11232;51.748;19.390;2023-04-24T13:29:30;10.25;;;4.03;;
22131;SDS011;11232;51.748;19.390;2023-04-24T13:31:56;5.93;;;4.03;;
22131;SDS011;11232;51.748;19.390;2023-04-24T13:34:23;6.07;;;3.95;;
22131;SDS011;11232;51.748;19.390;2023-04-24T13:36:52;6.05;;;3.65;;
22131;SDS011;11232;51.748;19.390;2023-04-24T13:39:19;3.50;;;3.15;;
22131;SDS011;11232;51.748;19.390;2023-04-24T13:41:44;4.82;;;3.80;;
22131;SDS011;11232;51.748;19.390;2023-04-24T13:44:13;4.88;;;3.42;;
22131;SDS011;11232;51.748;19.390;2023-04-24T13:46:39;5.80;;;3.90;;
22131;SDS011;11232;51.748;19.390;2023-04-24T13:49:05;4.10;;;3.55;;
22131;SDS011;11232;51.748;19.390;2023-04-24T13:51:31;5.68;;;4.22;;
22131;SDS011;11232;51.748;19.390;2023-04-24T13:53:57;7.95;;;4.70;;
22131;SDS011;11232;51.748;19.390;2023-04-24T13:56:23;6.85;;;4.50;;
22131;SDS011;11232;51.748;19.390;2023-04-24T13:58:49;8.05;;;4.80;;
22131;SDS011;11232;51.748;19.390;2023-04-24T14:01:15;7.03;;;4.57;;
22131;SDS011;11232;51.748;19.390;2023-04-24T14:03:41;7.50;;;5.00;;
22131;SDS011;11232;51.748;19.390;2023-04-24T14:06:08;9.23;;;4.60;;
22131;SDS011;11232;51.748;19.390;2023-04-24T14:08:34;7.05;;;4.50;;
22131;SDS011;11232;51.748;19.390;2023-04-24T14:11:00;6.35;;;4.40;;
22131;SDS011;11232;51.748;19.390;2023-04-24T14:13:26;4.63;;;4.03;;
22131;SDS011;11232;51.748;19.390;2023-04-24T14:15:52;8.63;;;4.65;;
22131;SDS011;11232;51.748;19.390;2023-04-24T14:18:18;5.15;;;4.03;;
22131;SDS011;11232;51.748;19.390;2023-04-24T14:20:44;5.47;;;4.13;;
22131;SDS011;11232;51.748;19.390;2023-04-24T14:23:10;7.40;;;5.30;;
22131;SDS011;11232;51.748;19.390;2023-04-24T14:25:37;8.10;;;4.88;;
22131;SDS011;11232;51.748;19.390;2023-04-24T14:28:03;9.02;;;4.82;;
22131;SDS011;11232;51.748;19.390;2023-04-24T14:30:28;7.43;;;4.45;;